Listerhav — ZDKC7 — position and weather

sailwx.info

Track history (hours):
 
Tides and Currents Weather Stations Pressure Air Temp Water Temp Dewpoint Dewpoint Depression Visibility Wind Speed Wind Dir Waves Ship Positions

Listerhav

Last reported at 2015-Jul-06 17:32 UTC. Time now 2015-Jul-06 17:52 UTC.
Position N 56°31' E 010°14'.

Length 88 m; draft 5.7 m.

Type: Ship. MMSI: 236591000.

Date/timePositionNaut miles runAvg speedWind from/ knotsBaromVisibWave heightAir tempDewpointWater temp
2015-Jul-06 17:32N 56°31' E 010°14'67 8.1
2015-Jul-06 09:18N 56°16' E 012°11'9 8.9
2015-Jul-06 08:19N 56°11' E 012°24'911.2
2015-Jul-06 07:33N 56°05' E 012°36'1010.2
2015-Jul-06 06:33N 55°56' E 012°44'1010.5
2015-Jul-06 05:34N 55°46' E 012°42'1110.6
2015-Jul-06 04:34N 55°35' E 012°42'10 9.9
2015-Jul-06 03:34N 55°25' E 012°42'8 8.1
2015-Jul-06 02:34N 55°18' E 012°46'1010.0
2015-Jul-06 01:33N 55°16' E 013°03'1010.2
2015-Jul-06 00:34N 55°15' E 013°21'1010.2
2015-Jul-05 23:33N 55°15' E 013°39'1010.0
2015-Jul-05 22:33N 55°15' E 013°56'1010.5
2015-Jul-05 21:34N 55°14' E 014°15'1110.7
2015-Jul-05 20:33N 55°22' E 014°27'1110.6
2015-Jul-05 19:34N 55°28' E 014°42'1110.5
2015-Jul-05 18:33N 55°34' E 014°58'1010.4
2015-Jul-05 17:33N 55°39' E 015°14'1110.8
2015-Jul-05 16:33N 55°44' E 015°30'1110.7
2015-Jul-05 15:33N 55°50' E 015°46'  
2015-Jul-02 21:15N 57°08' E 019°46'811.3
2015-Jul-02 20:33N 57°05' E 019°33'1211.5
2015-Jul-02 19:31N 56°59' E 019°14'1111.7
2015-Jul-02 18:33N 56°54' E 018°55'1211.5
2015-Jul-02 17:33N 56°49' E 018°36'7111.7
2015-Jul-02 11:27N 56°06' E 016°53'2511.4
2015-Jul-02 09:15N 55°54' E 016°14'811.4
2015-Jul-02 08:33N 55°50' E 016°02'1111.5
2015-Jul-02 07:33N 55°44' E 015°45'1211.8
2015-Jul-02 06:33N 55°38' E 015°27'1211.6
2015-Jul-02 05:33N 55°32' E 015°09'1111.5
2015-Jul-02 04:33N 55°27' E 014°51'1111.3
2015-Jul-02 03:33N 55°20' E 014°35'1111.4
2015-Jul-02 02:33N 55°12' E 014°22'1111.3
2015-Jul-02 01:33N 55°03' E 014°09'1111.0
2015-Jul-02 00:33N 54°58' E 013°52'1111.0
2015-Jul-01 23:33N 54°55' E 013°34'1111.1
2015-Jul-01 22:33N 54°51' E 013°16'1111.2
2015-Jul-01 21:33N 54°47' E 012°57'1110.8
2015-Jul-01 20:33N 54°43' E 012°40'1110.8
2015-Jul-01 19:33N 54°37' E 012°25'1010.3
2015-Jul-01 18:33N 54°28' E 012°15'1010.1
2015-Jul-01 17:33N 54°21' E 012°03'1010.1
2015-Jul-01 16:33N 54°15' E 011°49'7 7.0
2015-Jul-01 15:33N 54°10' E 011°41'2 1.2
2015-Jul-01 14:09N 54°12' E 011°42'0 0.8
2015-Jul-01 13:33N 54°12' E 011°42'1 0.7
2015-Jul-01 12:27N 54°13' E 011°42'8 9.4
2015-Jul-01 11:34N 54°08' E 011°30'10 9.6
2015-Jul-01 10:34N 54°00' E 011°20'7 0.8
2015-Jul-01 01:07N 53°54' E 011°27'0 0.0
2015-Jul-01 00:31N 53°54' E 011°27'0 0.0
2015-Jun-30 23:31N 53°54' E 011°27'0 0.0
2015-Jun-30 22:31N 53°54' E 011°27'0 0.0
2015-Jun-30 21:31N 53°54' E 011°27'0 0.0
2015-Jun-30 20:31N 53°54' E 011°27'0 0.0
2015-Jun-30 19:31N 53°54' E 011°27'0 0.0
2015-Jun-30 18:31N 53°54' E 011°27'0 0.0
2015-Jun-30 17:31N 53°54' E 011°27'0 0.0
2015-Jun-30 16:31N 53°54' E 011°27'0 0.0
2015-Jun-30 15:31N 53°54' E 011°27'0 0.0
2015-Jun-30 14:31N 53°54' E 011°27'0 0.0
2015-Jun-30 13:31N 53°54' E 011°27'0 0.0
2015-Jun-30 12:31N 53°54' E 011°27'0 0.0
2015-Jun-30 01:09N 53°54' E 011°27'0 0.0
2015-Jun-30 00:33N 53°54' E 011°27'0 0.0
2015-Jun-29 23:33N 53°54' E 011°27'1 0.8
2015-Jun-29 22:33N 53°55' E 011°26'7 7.2
2015-Jun-29 21:33N 54°02' E 011°23'7 7.1
2015-Jun-29 20:33N 54°08' E 011°30'1010.3
2015-Jun-29 19:33N 54°14' E 011°44'1010.1
2015-Jun-29 18:33N 54°19' E 011°58'1110.0
2015-Jun-29 17:29N 54°27' E 012°10'78 9.7
2015-Jun-29 09:27N 55°07' E 014°06'1110.0
2015-Jun-29 08:24N 55°15' E 014°18'1110.2
2015-Jun-29 07:21N 55°23' E 014°29'8 9.7
2015-Jun-29 06:33N 55°28' E 014°40'10 9.6
2015-Jun-29 05:33N 55°33' E 014°55'12 9.8
2015-Jun-29 04:20N 55°39' E 015°13'17 9.8
2015-Jun-29 02:33N 55°47' E 015°40'10 9.9
2015-Jun-29 01:33N 55°52' E 015°55'101 9.8
2015-Jun-28 15:15N 56°51' E 018°23'22910.1
2015-Jun-27 16:29N 59°37' E 023°24'1010.1
2015-Jun-27 15:27N 59°40' E 023°43'1010.2
2015-Jun-27 14:31N 59°43' E 024°01'1110.1
2015-Jun-27 13:29N 59°46' E 024°22'910.1
2015-Jun-27 12:33N 59°48' E 024°39'  
Track history (hours):
 
Tides and Currents Weather Stations Pressure Air Temp Water Temp Dewpoint Dewpoint Depression Visibility Wind Speed Wind Dir Waves Ship Positions

Listerhav

Last reported at 2015-Jul-06 17:32 UTC. Time now 2015-Jul-06 17:52 UTC.
Position N 56°31' E 010°14'.

Length 88 m; draft 5.7 m.

Type: Ship. MMSI: 236591000.

Date/timePositionNaut miles runAvg speedWind from/ knotsBaromVisibWave heightAir tempDewpointWater temp
2015-Jul-06 17:32N 56°31' E 010°14'67 8.1
2015-Jul-06 09:18N 56°16' E 012°11'9 8.9
2015-Jul-06 08:19N 56°11' E 012°24'911.2
2015-Jul-06 07:33N 56°05' E 012°36'1010.2
2015-Jul-06 06:33N 55°56' E 012°44'1010.5
2015-Jul-06 05:34N 55°46' E 012°42'1110.6
2015-Jul-06 04:34N 55°35' E 012°42'10 9.9
2015-Jul-06 03:34N 55°25' E 012°42'8 8.1
2015-Jul-06 02:34N 55°18' E 012°46'1010.0
2015-Jul-06 01:33N 55°16' E 013°03'1010.2
2015-Jul-06 00:34N 55°15' E 013°21'1010.2
2015-Jul-05 23:33N 55°15' E 013°39'1010.0
2015-Jul-05 22:33N 55°15' E 013°56'1010.5
2015-Jul-05 21:34N 55°14' E 014°15'1110.7
2015-Jul-05 20:33N 55°22' E 014°27'1110.6
2015-Jul-05 19:34N 55°28' E 014°42'1110.5
2015-Jul-05 18:33N 55°34' E 014°58'1010.4
2015-Jul-05 17:33N 55°39' E 015°14'1110.8
2015-Jul-05 16:33N 55°44' E 015°30'1110.7
2015-Jul-05 15:33N 55°50' E 015°46'  
2015-Jul-02 21:15N 57°08' E 019°46'811.3
2015-Jul-02 20:33N 57°05' E 019°33'1211.5
2015-Jul-02 19:31N 56°59' E 019°14'1111.7
2015-Jul-02 18:33N 56°54' E 018°55'1211.5
2015-Jul-02 17:33N 56°49' E 018°36'7111.7
2015-Jul-02 11:27N 56°06' E 016°53'2511.4
2015-Jul-02 09:15N 55°54' E 016°14'811.4
2015-Jul-02 08:33N 55°50' E 016°02'1111.5
2015-Jul-02 07:33N 55°44' E 015°45'1211.8
2015-Jul-02 06:33N 55°38' E 015°27'1211.6
2015-Jul-02 05:33N 55°32' E 015°09'1111.5
2015-Jul-02 04:33N 55°27' E 014°51'1111.3
2015-Jul-02 03:33N 55°20' E 014°35'1111.4
2015-Jul-02 02:33N 55°12' E 014°22'1111.3
2015-Jul-02 01:33N 55°03' E 014°09'1111.0
2015-Jul-02 00:33N 54°58' E 013°52'1111.0
2015-Jul-01 23:33N 54°55' E 013°34'1111.1
2015-Jul-01 22:33N 54°51' E 013°16'1111.2
2015-Jul-01 21:33N 54°47' E 012°57'1110.8
2015-Jul-01 20:33N 54°43' E 012°40'1110.8
2015-Jul-01 19:33N 54°37' E 012°25'1010.3
2015-Jul-01 18:33N 54°28' E 012°15'1010.1
2015-Jul-01 17:33N 54°21' E 012°03'1010.1
2015-Jul-01 16:33N 54°15' E 011°49'7 7.0
2015-Jul-01 15:33N 54°10' E 011°41'2 1.2
2015-Jul-01 14:09N 54°12' E 011°42'0 0.8
2015-Jul-01 13:33N 54°12' E 011°42'1 0.7
2015-Jul-01 12:27N 54°13' E 011°42'8 9.4
2015-Jul-01 11:34N 54°08' E 011°30'10 9.6
2015-Jul-01 10:34N 54°00' E 011°20'7 0.8
2015-Jul-01 01:07N 53°54' E 011°27'0 0.0
2015-Jul-01 00:31N 53°54' E 011°27'0 0.0
2015-Jun-30 23:31N 53°54' E 011°27'0 0.0
2015-Jun-30 22:31N 53°54' E 011°27'0 0.0
2015-Jun-30 21:31N 53°54' E 011°27'0 0.0
2015-Jun-30 20:31N 53°54' E 011°27'0 0.0
2015-Jun-30 19:31N 53°54' E 011°27'0 0.0
2015-Jun-30 18:31N 53°54' E 011°27'0 0.0
2015-Jun-30 17:31N 53°54' E 011°27'0 0.0
2015-Jun-30 16:31N 53°54' E 011°27'0 0.0
2015-Jun-30 15:31N 53°54' E 011°27'0 0.0
2015-Jun-30 14:31N 53°54' E 011°27'0 0.0
2015-Jun-30 13:31N 53°54' E 011°27'0 0.0
2015-Jun-30 12:31N 53°54' E 011°27'0 0.0
2015-Jun-30 01:09N 53°54' E 011°27'0 0.0
2015-Jun-30 00:33N 53°54' E 011°27'0 0.0
2015-Jun-29 23:33N 53°54' E 011°27'1 0.8
2015-Jun-29 22:33N 53°55' E 011°26'7 7.2
2015-Jun-29 21:33N 54°02' E 011°23'7 7.1
2015-Jun-29 20:33N 54°08' E 011°30'1010.3
2015-Jun-29 19:33N 54°14' E 011°44'1010.1
2015-Jun-29 18:33N 54°19' E 011°58'1110.0
2015-Jun-29 17:29N 54°27' E 012°10'78 9.7
2015-Jun-29 09:27N 55°07' E 014°06'1110.0
2015-Jun-29 08:24N 55°15' E 014°18'1110.2
2015-Jun-29 07:21N 55°23' E 014°29'8 9.7
2015-Jun-29 06:33N 55°28' E 014°40'10 9.6
2015-Jun-29 05:33N 55°33' E 014°55'12 9.8
2015-Jun-29 04:20N 55°39' E 015°13'17 9.8
2015-Jun-29 02:33N 55°47' E 015°40'10 9.9
2015-Jun-29 01:33N 55°52' E 015°55'101 9.8
2015-Jun-28 15:15N 56°51' E 018°23'22910.1
2015-Jun-27 16:29N 59°37' E 023°24'1010.1
2015-Jun-27 15:27N 59°40' E 023°43'1010.2
2015-Jun-27 14:31N 59°43' E 024°01'1110.1
2015-Jun-27 13:29N 59°46' E 024°22'910.1
2015-Jun-27 12:33N 59°48' E 024°39'  

Dump ship's entire track history